createdAt,value
2017-10-02T00:00:37.614Z,99.99
2017-10-02T00:01:37.572Z,99.99
2017-10-02T00:02:37.534Z,99.99
2017-10-02T00:03:37.506Z,99.99
2017-10-02T00:04:37.469Z,99.99
2017-10-02T00:05:37.439Z,99.99
2017-10-02T00:06:37.407Z,99.99
2017-10-02T00:07:37.360Z,99.99
2017-10-02T00:08:37.321Z,99.99
2017-10-02T00:09:37.283Z,99.99
2017-10-02T00:10:37.250Z,99.99
2017-10-02T00:11:37.222Z,99.99
2017-10-02T00:12:37.190Z,99.99
2017-10-02T00:13:37.142Z,99.99
2017-10-02T00:14:37.105Z,99.99
2017-10-02T00:15:37.070Z,99.99
2017-10-02T00:16:37.032Z,99.99
2017-10-02T00:17:37.004Z,99.99
2017-10-02T00:18:36.960Z,99.99
2017-10-02T00:19:36.936Z,99.99
2017-10-02T00:20:36.888Z,99.99
2017-10-02T00:21:36.849Z,99.99
2017-10-02T00:22:36.815Z,99.99
2017-10-02T00:23:36.779Z,99.99
2017-10-02T00:24:36.747Z,99.99
2017-10-02T00:25:36.715Z,99.99
2017-10-02T00:26:36.680Z,99.99
2017-10-02T00:27:36.657Z,99.99
2017-10-02T00:28:36.615Z,99.99
2017-10-02T00:29:36.597Z,99.99
2017-10-02T00:30:36.526Z,99.99
2017-10-02T00:31:36.508Z,99.99
2017-10-02T00:32:36.457Z,99.99
2017-10-02T00:33:36.419Z,99.99
2017-10-02T00:34:36.396Z,99.99
2017-10-02T00:35:36.343Z,99.99
2017-10-02T00:36:36.307Z,99.99
2017-10-02T00:37:36.272Z,99.99
2017-10-02T00:38:36.239Z,99.99
2017-10-02T00:39:36.256Z,99.99
2017-10-02T00:40:36.165Z,99.99
2017-10-02T00:41:36.136Z,99.99
2017-10-02T00:42:36.101Z,99.99
2017-10-02T00:43:36.063Z,99.99
2017-10-02T00:44:36.023Z,99.99
2017-10-02T00:45:35.983Z,99.99
2017-10-02T00:46:35.948Z,99.99
2017-10-02T00:47:35.917Z,99.99
2017-10-02T00:48:35.878Z,99.99
2017-10-02T00:49:35.838Z,99.99
2017-10-02T00:50:35.801Z,99.99
2017-10-02T00:51:35.763Z,99.99
2017-10-02T00:52:35.734Z,99.99
2017-10-02T00:53:35.691Z,99.99
2017-10-02T00:54:35.658Z,99.99
2017-10-02T00:55:35.630Z,99.99
2017-10-02T00:56:35.584Z,99.99
2017-10-02T00:57:35.549Z,99.99
2017-10-02T00:58:35.512Z,99.99
2017-10-02T00:59:35.477Z,99.99
2017-10-02T01:00:35.438Z,99.99
2017-10-02T01:01:35.402Z,99.99
2017-10-02T01:02:35.367Z,99.99
2017-10-02T01:03:35.332Z,99.99
2017-10-02T01:04:35.290Z,99.99
2017-10-02T01:05:35.258Z,99.99
2017-10-02T01:06:35.217Z,99.99
2017-10-02T01:07:35.184Z,99.99
2017-10-02T01:08:35.146Z,99.99
2017-10-02T01:09:35.108Z,99.99
2017-10-02T01:10:35.075Z,99.99
2017-10-02T01:11:35.038Z,99.99
2017-10-02T01:12:35.003Z,99.99
2017-10-02T01:13:34.964Z,99.99
2017-10-02T01:14:34.929Z,99.99
2017-10-02T01:15:34.890Z,99.99
2017-10-02T01:16:34.863Z,99.99
2017-10-02T01:17:34.819Z,99.99
2017-10-02T01:18:34.780Z,99.99
2017-10-02T01:19:34.747Z,99.99
2017-10-02T01:20:34.712Z,99.99
2017-10-02T01:21:34.674Z,99.99
2017-10-02T01:22:34.641Z,99.99
2017-10-02T01:23:34.609Z,99.99
2017-10-02T01:24:34.566Z,99.99
2017-10-02T01:25:34.526Z,99.99
2017-10-02T01:26:34.503Z,99.99
2017-10-02T01:27:34.457Z,99.99
2017-10-02T01:28:34.418Z,99.99
2017-10-02T01:29:34.392Z,99.99
2017-10-02T01:30:34.350Z,99.99
2017-10-02T01:31:34.310Z,99.99
2017-10-02T01:32:34.281Z,99.99
2017-10-02T01:33:34.239Z,99.99
2017-10-02T01:34:34.201Z,99.99
2017-10-02T01:35:34.162Z,99.99
2017-10-02T01:36:34.129Z,99.99
2017-10-02T01:37:34.091Z,99.99
2017-10-02T01:38:34.070Z,99.99
2017-10-02T01:39:34.022Z,99.99
2017-10-02T01:40:33.984Z,99.99
2017-10-02T01:41:33.952Z,99.99
2017-10-02T01:42:33.911Z,99.99
2017-10-02T01:43:33.873Z,99.99
2017-10-02T01:44:33.838Z,99.99
2017-10-02T01:45:33.799Z,99.99
2017-10-02T01:46:33.764Z,99.99
2017-10-02T01:47:33.727Z,99.99
2017-10-02T01:48:33.696Z,99.99
2017-10-02T01:49:33.656Z,99.99
2017-10-02T01:50:33.618Z,99.99
2017-10-02T01:51:33.586Z,99.99
2017-10-02T01:52:33.554Z,99.99
2017-10-02T01:53:33.518Z,99.99
2017-10-02T01:54:33.472Z,99.99
2017-10-02T01:55:33.436Z,99.99
2017-10-02T01:56:33.400Z,99.99
2017-10-02T01:57:33.361Z,99.99
2017-10-02T01:58:33.342Z,99.99
2017-10-02T01:59:33.291Z,99.99
2017-10-02T02:00:33.253Z,99.99
2017-10-02T02:01:33.215Z,99.99
2017-10-02T02:02:33.181Z,99.99
2017-10-02T02:03:33.141Z,99.99
2017-10-02T02:04:33.107Z,99.99
2017-10-02T02:05:33.076Z,99.99
2017-10-02T02:06:33.037Z,99.99
2017-10-02T02:07:32.995Z,99.99
2017-10-02T02:08:32.961Z,99.99
2017-10-02T02:09:32.924Z,99.99
2017-10-02T02:10:32.885Z,99.99
2017-10-02T02:11:32.850Z,99.99
2017-10-02T02:12:32.815Z,99.99
2017-10-02T02:13:32.774Z,99.99
2017-10-02T02:14:32.751Z,99.99
2017-10-02T02:15:32.707Z,99.99
2017-10-02T02:16:32.666Z,99.99
2017-10-02T02:17:32.628Z,99.99
2017-10-02T02:18:32.593Z,99.99
2017-10-02T02:19:32.557Z,99.99
2017-10-02T02:20:32.520Z,99.99
2017-10-02T02:21:32.487Z,99.99
2017-10-02T02:22:32.450Z,99.99
2017-10-02T02:23:32.407Z,99.99
2017-10-02T02:24:32.373Z,99.99
2017-10-02T02:25:32.340Z,99.99
2017-10-02T02:26:32.298Z,99.99
2017-10-02T02:27:32.268Z,99.99
2017-10-02T02:28:32.231Z,99.99
2017-10-02T02:29:32.189Z,99.99
2017-10-02T02:30:32.152Z,99.99
2017-10-02T02:31:32.119Z,99.99
2017-10-02T02:32:32.083Z,99.99
2017-10-02T02:33:32.041Z,99.99
2017-10-02T02:34:32.007Z,99.99
2017-10-02T02:35:31.973Z,99.99
2017-10-02T02:36:31.941Z,99.99
2017-10-02T02:37:31.895Z,99.99
2017-10-02T02:38:31.860Z,99.99
2017-10-02T02:39:31.827Z,99.99
2017-10-02T02:40:31.786Z,99.99
2017-10-02T02:41:31.749Z,99.99
2017-10-02T02:42:31.714Z,99.99
2017-10-02T02:43:31.678Z,99.99
2017-10-02T02:44:31.647Z,99.99
2017-10-02T02:45:31.603Z,99.99
2017-10-02T02:46:31.567Z,99.99
2017-10-02T02:47:31.531Z,99.99
2017-10-02T02:48:31.495Z,99.99
2017-10-02T02:49:31.458Z,99.99
2017-10-02T02:50:31.419Z,99.99
2017-10-02T02:51:31.387Z,99.99
2017-10-02T02:52:31.350Z,99.99
2017-10-02T02:53:31.310Z,99.99
2017-10-02T02:54:31.272Z,99.99
2017-10-02T02:55:31.238Z,99.99
2017-10-02T02:56:31.200Z,99.99
2017-10-02T02:57:31.162Z,99.99
2017-10-02T02:58:31.127Z,99.99
2017-10-02T02:59:31.092Z,99.99
2017-10-02T03:00:31.052Z,99.99
2017-10-02T03:01:31.019Z,99.99
2017-10-02T03:02:30.977Z,99.99
2017-10-02T03:03:30.948Z,99.99
2017-10-02T03:04:30.908Z,99.99
2017-10-02T03:05:30.873Z,99.99
2017-10-02T03:06:30.833Z,99.99
2017-10-02T03:07:30.803Z,99.99
2017-10-02T03:08:30.767Z,99.99
2017-10-02T03:09:30.721Z,99.99
2017-10-02T03:10:30.682Z,99.99
2017-10-02T03:11:30.647Z,99.99
2017-10-02T03:12:30.612Z,99.99
2017-10-02T03:13:30.584Z,99.99
2017-10-02T03:14:30.538Z,99.99
2017-10-02T03:15:30.500Z,99.99
2017-10-02T03:16:30.462Z,99.99
2017-10-02T03:17:30.425Z,99.99
2017-10-02T03:18:30.389Z,99.99
2017-10-02T03:19:30.359Z,99.99
2017-10-02T03:20:30.324Z,99.99
2017-10-02T03:21:30.277Z,99.99
2017-10-02T03:22:30.242Z,99.99
2017-10-02T03:23:30.203Z,99.99
2017-10-02T03:24:30.168Z,99.99
2017-10-02T03:25:30.132Z,99.99
2017-10-02T03:26:30.095Z,99.99
2017-10-02T03:27:30.065Z,99.99
2017-10-02T03:28:30.022Z,99.99
2017-10-02T03:29:29.988Z,99.99
2017-10-02T03:30:29.951Z,99.99
2017-10-02T03:31:29.912Z,99.99
2017-10-02T03:32:29.871Z,99.99
2017-10-02T03:33:29.835Z,99.99
2017-10-02T03:34:29.804Z,99.99
2017-10-02T03:35:29.761Z,99.99
2017-10-02T03:36:29.728Z,99.99
2017-10-02T03:37:29.686Z,99.99
2017-10-02T03:38:29.653Z,99.99
2017-10-02T03:39:29.616Z,99.99
2017-10-02T03:40:29.586Z,99.99
2017-10-02T03:41:29.543Z,99.99
2017-10-02T03:42:29.506Z,99.99
2017-10-02T03:43:29.471Z,99.99
2017-10-02T03:44:29.432Z,99.99
2017-10-02T03:45:29.394Z,99.99
2017-10-02T03:46:29.371Z,99.99
2017-10-02T03:47:29.326Z,99.99
2017-10-02T03:48:29.285Z,99.99
2017-10-02T03:49:29.247Z,99.99
2017-10-02T03:50:29.210Z,99.99
2017-10-02T03:51:29.172Z,99.99
2017-10-02T03:52:29.136Z,99.99
2017-10-02T03:53:29.111Z,99.99
2017-10-02T03:54:29.066Z,99.99
2017-10-02T03:55:29.028Z,99.99
2017-10-02T03:56:28.992Z,99.99
2017-10-02T03:57:28.954Z,99.99
2017-10-02T03:58:28.914Z,99.99
2017-10-02T03:59:28.882Z,99.99
2017-10-02T04:00:28.847Z,99.99
2017-10-02T04:01:28.806Z,99.99
2017-10-02T04:02:28.767Z,99.99
2017-10-02T04:03:28.731Z,99.99
2017-10-02T04:04:28.694Z,99.99
2017-10-02T04:05:28.657Z,99.99
2017-10-02T04:06:28.621Z,99.99
2017-10-02T04:07:28.588Z,99.99
2017-10-02T04:08:28.550Z,99.99
2017-10-02T04:09:28.510Z,99.99
2017-10-02T04:10:28.474Z,99.99
2017-10-02T04:11:28.444Z,99.99
2017-10-02T04:12:28.402Z,99.99
2017-10-02T04:13:28.377Z,99.99
2017-10-02T04:14:28.332Z,99.99
2017-10-02T04:15:28.294Z,99.99
2017-10-02T04:16:28.255Z,99.99
2017-10-02T04:17:28.214Z,99.99
2017-10-02T04:18:28.204Z,99.99
2017-10-02T04:19:28.148Z,99.99
2017-10-02T04:20:28.106Z,99.99
2017-10-02T04:21:28.071Z,99.99
2017-10-02T04:22:28.033Z,99.99
2017-10-02T04:23:27.998Z,99.99
2017-10-02T04:24:27.959Z,99.99
2017-10-02T04:25:27.935Z,99.99
2017-10-02T04:26:27.887Z,99.99
2017-10-02T04:27:27.849Z,99.99
2017-10-02T04:28:27.815Z,99.99
2017-10-02T04:29:27.787Z,99.99
2017-10-02T04:30:27.747Z,99.99
2017-10-02T04:31:27.703Z,99.99
2017-10-02T04:32:27.665Z,99.99
2017-10-02T04:33:27.676Z,99.99
2017-10-02T04:34:27.590Z,99.99
2017-10-02T04:35:27.560Z,99.99
2017-10-02T04:36:27.519Z,99.99
2017-10-02T04:37:27.490Z,99.99
2017-10-02T04:38:27.475Z,99.99
2017-10-02T04:39:27.435Z,99.99
2017-10-02T04:40:27.388Z,99.99
2017-10-02T04:41:27.334Z,99.99
2017-10-02T04:42:27.300Z,99.99
2017-10-02T04:43:27.260Z,99.99
2017-10-02T04:44:27.230Z,99.99
2017-10-02T04:45:27.196Z,99.99
2017-10-02T04:46:27.149Z,99.99
2017-10-02T04:47:27.115Z,99.99
2017-10-02T04:48:27.108Z,99.99
2017-10-02T04:49:27.043Z,99.99
2017-10-02T04:50:27.015Z,99.99
2017-10-02T04:51:26.969Z,99.99
2017-10-02T04:52:26.938Z,99.99
2017-10-02T04:53:26.899Z,99.99
2017-10-02T04:54:26.893Z,99.99
2017-10-02T04:55:26.819Z,99.99
2017-10-02T04:56:26.789Z,99.99
2017-10-02T04:57:26.743Z,99.99
2017-10-02T04:58:26.737Z,99.99
2017-10-02T04:59:26.673Z,99.99
2017-10-02T05:00:26.635Z,99.99
2017-10-02T05:01:26.595Z,99.99
2017-10-02T05:02:26.564Z,99.99
2017-10-02T05:03:26.529Z,99.99
2017-10-02T05:04:26.491Z,99.99
2017-10-02T05:05:26.455Z,99.99
2017-10-02T05:06:26.415Z,99.99
2017-10-02T05:07:26.383Z,99.99
2017-10-02T05:08:26.341Z,99.99
2017-10-02T05:09:26.306Z,99.99
2017-10-02T05:10:26.273Z,99.99
2017-10-02T05:11:26.230Z,99.99
2017-10-02T05:12:26.195Z,99.99
2017-10-02T05:13:26.162Z,99.99
2017-10-02T05:14:26.120Z,99.99
2017-10-02T05:15:26.097Z,99.99
2017-10-02T05:16:26.051Z,99.99
2017-10-02T05:17:26.013Z,99.99
2017-10-02T05:18:25.975Z,99.99
2017-10-02T05:19:25.935Z,99.99
2017-10-02T05:20:25.902Z,99.99
2017-10-02T05:21:25.865Z,99.99
2017-10-02T05:22:25.830Z,99.99
2017-10-02T05:23:25.792Z,99.99
2017-10-02T05:24:25.760Z,99.99
2017-10-02T05:25:25.727Z,99.99
2017-10-02T05:26:25.679Z,99.99
2017-10-02T05:27:25.642Z,99.80
2017-10-02T05:28:25.606Z,98.85
2017-10-02T05:29:25.572Z,97.75
2017-10-02T05:30:25.536Z,97.56
2017-10-02T05:31:25.499Z,96.13
2017-10-02T05:32:25.460Z,95.27
2017-10-02T05:33:25.424Z,94.84
2017-10-02T05:34:25.384Z,93.70
2017-10-02T05:35:25.349Z,93.21
2017-10-02T05:36:25.315Z,92.83
2017-10-02T05:37:25.279Z,92.11
2017-10-02T05:38:25.246Z,91.06
2017-10-02T05:39:25.207Z,90.68
2017-10-02T05:40:25.173Z,90.20
2017-10-02T05:41:25.133Z,90.06
2017-10-02T05:42:25.102Z,89.48
2017-10-02T05:43:25.060Z,89.29
2017-10-02T05:44:25.026Z,87.62
2017-10-02T05:45:24.990Z,86.47
2017-10-02T05:46:24.954Z,86.61
2017-10-02T05:47:24.921Z,85.55
2017-10-02T05:48:24.889Z,84.59
2017-10-02T05:49:24.849Z,85.89
2017-10-02T05:50:24.817Z,87.09
2017-10-02T05:51:24.779Z,90.64
2017-10-02T05:52:24.743Z,92.55
2017-10-02T05:53:24.714Z,93.17
2017-10-02T05:54:24.682Z,94.41
2017-10-02T05:55:24.649Z,94.98
2017-10-02T05:56:24.652Z,95.36
2017-10-02T05:57:24.573Z,96.03
2017-10-02T05:58:24.543Z,96.08
2017-10-02T05:59:24.505Z,96.37
2017-10-02T06:00:24.463Z,96.75
2017-10-02T06:01:24.429Z,96.66
2017-10-02T06:02:24.391Z,97.61
2017-10-02T06:03:24.358Z,97.03
2017-10-02T06:04:24.324Z,97.22
2017-10-02T06:05:24.285Z,97.42
2017-10-02T06:06:24.255Z,97.99
2017-10-02T06:07:24.215Z,97.89
2017-10-02T06:08:24.180Z,97.51
2017-10-02T06:09:24.142Z,97.99
2017-10-02T06:10:24.113Z,97.51
2017-10-02T06:11:24.073Z,97.51
2017-10-02T06:12:24.053Z,97.03
2017-10-02T06:13:23.999Z,97.22
2017-10-02T06:14:23.973Z,97.03
2017-10-02T06:15:23.930Z,96.75
2017-10-02T06:16:23.898Z,96.37
2017-10-02T06:17:23.861Z,96.84
2017-10-02T06:18:23.825Z,96.17
2017-10-02T06:19:23.788Z,96.66
2017-10-02T06:20:23.755Z,96.37
2017-10-02T06:21:23.714Z,96.17
2017-10-02T06:22:23.685Z,96.56
2017-10-02T06:23:23.645Z,96.56
2017-10-02T06:24:23.611Z,96.46
2017-10-02T06:25:23.576Z,96.37
2017-10-02T06:26:23.538Z,96.03
2017-10-02T06:27:23.505Z,95.84
2017-10-02T06:28:23.476Z,96.22
2017-10-02T06:29:23.434Z,95.56
2017-10-02T06:30:23.397Z,95.46
2017-10-02T06:31:23.361Z,95.27
2017-10-02T06:32:23.325Z,95.65
2017-10-02T06:33:23.290Z,95.27
2017-10-02T06:34:23.261Z,95.46
2017-10-02T06:35:23.216Z,95.46
2017-10-02T06:36:23.185Z,94.60
2017-10-02T06:37:23.154Z,94.60
2017-10-02T06:38:23.111Z,95.46
2017-10-02T06:39:23.079Z,95.08
2017-10-02T06:40:23.066Z,94.70
2017-10-02T06:41:23.008Z,94.89
2017-10-02T06:42:22.975Z,94.03
2017-10-02T06:43:22.935Z,94.51
2017-10-02T06:44:22.902Z,94.22
2017-10-02T06:45:22.861Z,93.26
2017-10-02T06:46:22.831Z,93.65
2017-10-02T06:47:22.791Z,93.36
2017-10-02T06:48:22.759Z,94.36
2017-10-02T06:49:22.723Z,93.74
2017-10-02T06:50:22.685Z,92.97
2017-10-02T06:51:22.654Z,93.12
2017-10-02T06:52:22.618Z,92.64
2017-10-02T06:53:22.598Z,93.50
2017-10-02T06:54:22.542Z,92.83
2017-10-02T06:55:22.522Z,93.41
2017-10-02T06:56:22.472Z,92.83
2017-10-02T06:57:22.445Z,92.83
2017-10-02T06:58:22.403Z,92.93
2017-10-02T06:59:22.380Z,93.02
2017-10-02T07:00:22.347Z,92.55
2017-10-02T07:01:22.317Z,93.12
2017-10-02T07:02:22.262Z,92.26
2017-10-02T07:03:22.245Z,92.45
2017-10-02T07:04:22.194Z,91.97
2017-10-02T07:05:22.178Z,91.97
2017-10-02T07:06:22.126Z,91.78
2017-10-02T07:07:22.096Z,91.88
2017-10-02T07:08:22.069Z,92.16
2017-10-02T07:09:22.027Z,91.59
2017-10-02T07:10:21.983Z,92.07
2017-10-02T07:11:21.951Z,91.30
2017-10-02T07:12:21.919Z,90.83
2017-10-02T07:13:21.875Z,91.21
2017-10-02T07:14:21.856Z,91.06
2017-10-02T07:15:21.833Z,91.02
2017-10-02T07:16:21.789Z,90.64
2017-10-02T07:17:21.745Z,91.25
2017-10-02T07:18:21.705Z,91.02
2017-10-02T07:19:21.668Z,91.11
2017-10-02T07:20:21.635Z,91.06
2017-10-02T07:21:21.623Z,90.78
2017-10-02T07:22:21.567Z,91.35
2017-10-02T07:23:21.532Z,91.06
2017-10-02T07:24:21.509Z,91.16
2017-10-02T07:25:21.459Z,90.20
2017-10-02T07:26:21.422Z,90.20
2017-10-02T07:27:21.390Z,90.01
2017-10-02T07:28:21.352Z,90.49
2017-10-02T07:29:21.319Z,90.30
2017-10-02T07:30:21.285Z,90.68
2017-10-02T07:31:21.246Z,90.88
2017-10-02T07:32:21.218Z,89.92
2017-10-02T07:33:21.178Z,90.30
2017-10-02T07:34:21.139Z,90.68
2017-10-02T07:35:21.115Z,90.20
2017-10-02T07:36:21.076Z,90.01
2017-10-02T07:37:21.046Z,89.63
2017-10-02T07:38:21.007Z,89.34
2017-10-02T07:39:20.968Z,89.15
2017-10-02T07:40:20.937Z,89.63
2017-10-02T07:41:20.905Z,89.15
2017-10-02T07:42:20.871Z,88.48
2017-10-02T07:43:20.832Z,88.48
2017-10-02T07:44:20.799Z,89.15
2017-10-02T07:45:20.767Z,88.81
2017-10-02T07:46:20.736Z,89.48
2017-10-02T07:47:20.695Z,88.43
2017-10-02T07:48:20.659Z,88.34
2017-10-02T07:49:20.643Z,88.20
2017-10-02T07:50:20.596Z,88.72
2017-10-02T07:51:20.562Z,88.43
2017-10-02T07:52:20.521Z,88.01
2017-10-02T07:53:20.490Z,87.76
2017-10-02T07:54:20.460Z,87.48
2017-10-02T07:55:20.420Z,87.48
2017-10-02T07:56:20.391Z,87.66
2017-10-02T07:57:20.354Z,87.48
2017-10-02T07:58:20.316Z,87.09
2017-10-02T07:59:20.285Z,87.57
2017-10-02T08:00:20.271Z,87.00
2017-10-02T08:01:20.216Z,86.90
2017-10-02T08:02:20.177Z,86.52
2017-10-02T08:03:20.152Z,86.94
2017-10-02T08:04:20.112Z,86.57
2017-10-02T08:05:20.076Z,86.43
2017-10-02T08:06:20.042Z,86.57
2017-10-02T08:07:20.008Z,86.52
2017-10-02T08:08:19.975Z,86.14
2017-10-02T08:09:19.947Z,85.51
2017-10-02T08:10:19.907Z,86.57
2017-10-02T08:11:19.871Z,85.71
2017-10-02T08:12:19.839Z,85.99
2017-10-02T08:13:19.815Z,86.18
2017-10-02T08:14:19.769Z,85.22
2017-10-02T08:15:19.736Z,85.13
2017-10-02T08:16:19.703Z,85.51
2017-10-02T08:17:19.669Z,84.65
2017-10-02T08:18:19.634Z,85.41
2017-10-02T08:19:19.604Z,84.75
2017-10-02T08:20:19.568Z,84.75
2017-10-02T08:21:19.535Z,85.22
2017-10-02T08:22:19.502Z,84.55
2017-10-02T08:23:19.474Z,84.55
2017-10-02T08:24:19.431Z,84.75
2017-10-02T08:25:19.399Z,84.75
2017-10-02T08:26:19.366Z,84.55
2017-10-02T08:27:19.332Z,84.55
2017-10-02T08:28:19.300Z,84.36
2017-10-02T08:29:19.271Z,84.36
2017-10-02T08:30:19.231Z,84.22
2017-10-02T08:31:19.202Z,84.12
2017-10-02T08:32:19.167Z,83.73
2017-10-02T08:33:19.130Z,84.12
2017-10-02T08:34:19.098Z,83.73
2017-10-02T08:35:19.070Z,83.54
2017-10-02T08:36:19.030Z,83.83
2017-10-02T08:37:19.001Z,83.36
2017-10-02T08:38:18.970Z,82.97
2017-10-02T08:39:18.939Z,82.63
2017-10-02T08:40:18.900Z,82.53
2017-10-02T08:41:18.867Z,82.06
2017-10-02T08:42:18.834Z,81.86
2017-10-02T08:43:18.807Z,81.82
2017-10-02T08:44:18.765Z,81.86
2017-10-02T08:45:18.734Z,81.86
2017-10-02T08:46:18.706Z,81.10
2017-10-02T08:47:18.674Z,80.81
2017-10-02T08:48:18.630Z,81.48
2017-10-02T08:49:18.610Z,81.00
2017-10-02T08:50:18.570Z,81.29
2017-10-02T08:51:18.536Z,81.20
2017-10-02T08:52:18.500Z,80.71
2017-10-02T08:53:18.470Z,79.57
2017-10-02T08:54:18.433Z,80.14
2017-10-02T08:55:18.398Z,80.62
2017-10-02T08:56:18.372Z,79.95
2017-10-02T08:57:18.333Z,80.81
2017-10-02T08:58:18.301Z,80.71
2017-10-02T08:59:18.275Z,80.81
2017-10-02T09:00:18.235Z,80.24
2017-10-02T09:01:18.200Z,80.52
2017-10-02T09:02:18.165Z,80.52
2017-10-02T09:03:18.144Z,80.52
2017-10-02T09:04:18.103Z,80.04
2017-10-02T09:05:18.069Z,80.14
2017-10-02T09:06:18.040Z,80.52
2017-10-02T09:07:18.016Z,80.62
2017-10-02T09:08:17.974Z,80.43
2017-10-02T09:09:17.938Z,79.95
2017-10-02T09:10:17.909Z,80.43
2017-10-02T09:11:17.891Z,80.52
2017-10-02T09:12:17.848Z,80.14
2017-10-02T09:13:17.808Z,80.24
2017-10-02T09:14:17.774Z,80.14
2017-10-02T09:15:17.740Z,80.24
2017-10-02T09:16:17.716Z,80.18
2017-10-02T09:17:17.678Z,80.14
2017-10-02T09:18:17.651Z,79.85
2017-10-02T09:19:17.611Z,79.70
2017-10-02T09:20:17.579Z,79.99
2017-10-02T09:21:17.547Z,79.60
2017-10-02T09:22:17.513Z,80.08
2017-10-02T09:23:17.483Z,78.93
2017-10-02T09:24:17.449Z,78.93
2017-10-02T09:25:17.420Z,78.64
2017-10-02T09:26:17.381Z,78.27
2017-10-02T09:27:17.357Z,78.74
2017-10-02T09:28:17.317Z,78.45
2017-10-02T09:29:17.289Z,77.88
2017-10-02T09:30:17.254Z,77.78
2017-10-02T09:31:17.226Z,77.92
2017-10-02T09:32:17.190Z,77.92
2017-10-02T09:33:17.152Z,77.44
2017-10-02T09:34:17.122Z,76.96
2017-10-02T09:35:17.104Z,77.53
2017-10-02T09:36:17.066Z,77.06
2017-10-02T09:37:17.027Z,76.86
2017-10-02T09:38:17.002Z,76.48
2017-10-02T09:39:16.967Z,76.57
2017-10-02T09:40:16.927Z,76.67
2017-10-02T09:41:16.898Z,76.39
2017-10-02T09:42:16.866Z,76.67
2017-10-02T09:43:16.844Z,75.81
2017-10-02T09:44:16.800Z,76.10
2017-10-02T09:45:16.766Z,76.29
2017-10-02T09:46:16.735Z,75.95
2017-10-02T09:47:16.721Z,75.71
2017-10-02T09:48:16.676Z,76.00
2017-10-02T09:49:16.642Z,75.62
2017-10-02T09:50:16.635Z,75.71
2017-10-02T09:51:16.588Z,75.46
2017-10-02T09:52:16.547Z,75.85
2017-10-02T09:53:16.511Z,75.65
2017-10-02T09:54:16.475Z,75.65
2017-10-02T09:55:16.452Z,75.56
2017-10-02T09:56:16.414Z,75.18
2017-10-02T09:57:16.389Z,75.37
2017-10-02T09:58:16.376Z,75.27
2017-10-02T09:59:16.348Z,75.65
2017-10-02T10:00:16.290Z,74.79
2017-10-02T10:01:16.251Z,74.89
2017-10-02T10:02:16.220Z,74.22
2017-10-02T10:03:16.187Z,74.31
2017-10-02T10:04:16.156Z,74.54
2017-10-02T10:05:16.122Z,74.12
2017-10-02T10:06:16.098Z,73.68
2017-10-02T10:07:16.086Z,73.97
2017-10-02T10:08:16.035Z,74.16
2017-10-02T10:09:16.010Z,74.12
2017-10-02T10:10:15.962Z,74.02
2017-10-02T10:11:15.933Z,74.06
2017-10-02T10:12:15.904Z,73.87
2017-10-02T10:13:15.868Z,73.77
2017-10-02T10:14:15.836Z,74.26
2017-10-02T10:15:15.806Z,73.97
2017-10-02T10:16:15.796Z,73.97
2017-10-02T10:17:15.741Z,74.16
2017-10-02T10:18:15.707Z,74.35
2017-10-02T10:19:15.677Z,74.16
2017-10-02T10:20:15.645Z,73.87
2017-10-02T10:21:15.622Z,74.06
2017-10-02T10:22:15.585Z,74.26
2017-10-02T10:23:15.549Z,73.97
2017-10-02T10:24:15.522Z,74.93
2017-10-02T10:25:15.482Z,74.93
2017-10-02T10:26:15.454Z,75.12
2017-10-02T10:27:15.455Z,74.93
2017-10-02T10:28:15.403Z,75.31
2017-10-02T10:29:15.358Z,75.70
2017-10-02T10:30:15.329Z,75.27
2017-10-02T10:31:15.327Z,75.89
2017-10-02T10:32:15.270Z,75.75
2017-10-02T10:33:15.239Z,75.79
2017-10-02T10:34:15.209Z,75.56
2017-10-02T10:35:15.181Z,75.60
2017-10-02T10:36:15.148Z,75.85
2017-10-02T10:37:15.108Z,76.52
2017-10-02T10:38:15.082Z,76.81
2017-10-02T10:39:15.045Z,76.90
2017-10-02T10:40:15.017Z,76.90
2017-10-02T10:41:14.982Z,77.95
2017-10-02T10:42:14.962Z,78.05
2017-10-02T10:43:14.916Z,77.95
2017-10-02T10:44:14.892Z,77.86
2017-10-02T10:45:14.891Z,78.63
2017-10-02T10:46:14.820Z,79.01
2017-10-02T10:47:14.791Z,79.74
2017-10-02T10:48:14.765Z,78.20
2017-10-02T10:49:14.729Z,79.07
2017-10-02T10:50:14.698Z,78.97
2017-10-02T10:51:14.662Z,79.36
2017-10-02T10:52:14.631Z,79.74
2017-10-02T10:53:14.599Z,79.45
2017-10-02T10:54:14.565Z,79.83
2017-10-02T10:55:14.533Z,79.74
2017-10-02T10:56:14.504Z,79.83
2017-10-02T10:57:14.474Z,80.32
2017-10-02T10:58:14.440Z,81.37
2017-10-02T10:59:14.419Z,81.46
2017-10-02T11:00:14.375Z,81.95
2017-10-02T11:01:14.351Z,81.18
2017-10-02T11:02:14.309Z,81.46
2017-10-02T11:03:14.277Z,81.56
2017-10-02T11:04:14.254Z,81.66
2017-10-02T11:05:14.221Z,83.09
2017-10-02T11:06:14.184Z,83.09
2017-10-02T11:07:14.159Z,83.09
2017-10-02T11:08:14.115Z,84.05
2017-10-02T11:09:14.085Z,84.63
2017-10-02T11:10:14.052Z,85.30
2017-10-02T11:11:14.021Z,86.83
2017-10-02T11:12:13.995Z,87.37
2017-10-02T11:13:13.964Z,87.84
2017-10-02T11:14:13.926Z,89.57
2017-10-02T11:15:13.899Z,88.13
2017-10-02T11:16:13.866Z,88.61
2017-10-02T11:17:13.834Z,90.91
2017-10-02T11:18:13.792Z,91.49
2017-10-02T11:19:13.767Z,92.15
2017-10-02T11:20:13.730Z,92.06
2017-10-02T11:21:13.689Z,93.11
2017-10-02T11:22:13.685Z,92.97
2017-10-02T11:23:13.644Z,94.31
2017-10-02T11:24:13.604Z,93.35
2017-10-02T11:25:13.562Z,93.83
2017-10-02T11:26:13.530Z,94.79
2017-10-02T11:27:13.498Z,95.94
2017-10-02T11:28:13.465Z,95.94
2017-10-02T11:29:13.433Z,95.36
2017-10-02T11:30:13.413Z,95.61
2017-10-02T11:31:13.368Z,95.51
2017-10-02T11:32:13.334Z,97.33
2017-10-02T11:33:13.334Z,97.52
2017-10-02T11:34:13.269Z,98.86
2017-10-02T11:35:13.237Z,98.19
2017-10-02T11:36:13.205Z,99.99
2017-10-02T11:37:13.169Z,99.43
2017-10-02T11:38:13.135Z,98.66
2017-10-02T11:39:13.102Z,98.38
2017-10-02T11:40:13.079Z,99.91
2017-10-02T11:41:13.036Z,99.81
2017-10-02T11:42:13.002Z,99.52
2017-10-02T11:43:12.970Z,99.99
2017-10-02T11:44:12.940Z,99.99
2017-10-02T11:45:12.906Z,99.99
2017-10-02T11:46:12.874Z,99.99
2017-10-02T11:47:12.841Z,99.99
2017-10-02T11:48:12.809Z,99.99
2017-10-02T11:49:12.771Z,99.99
2017-10-02T11:50:12.738Z,99.99
2017-10-02T11:51:12.702Z,99.99
2017-10-02T11:52:12.678Z,99.99
2017-10-02T11:53:12.638Z,99.99
2017-10-02T11:54:12.619Z,99.99
2017-10-02T11:55:12.577Z,99.99
2017-10-02T11:56:12.541Z,99.99
2017-10-02T11:57:12.509Z,99.99
2017-10-02T11:58:12.471Z,99.99
2017-10-02T11:59:12.436Z,99.99
2017-10-02T12:00:12.409Z,99.99
2017-10-02T12:01:12.377Z,99.99
2017-10-02T12:02:12.339Z,99.99
2017-10-02T12:03:12.306Z,99.99
2017-10-02T12:04:12.293Z,99.99
2017-10-02T12:05:12.232Z,99.99
2017-10-02T12:06:12.220Z,99.99
2017-10-02T12:07:12.167Z,99.99
2017-10-02T12:08:12.182Z,99.99
2017-10-02T12:09:12.106Z,99.99
2017-10-02T12:10:12.067Z,99.99
2017-10-02T12:11:12.035Z,99.99
2017-10-02T12:12:11.997Z,99.99
2017-10-02T12:13:11.998Z,99.99
2017-10-02T12:14:11.939Z,99.99
2017-10-02T12:15:11.911Z,99.99
2017-10-02T12:16:11.864Z,99.99
2017-10-02T12:17:11.871Z,99.99
2017-10-02T12:18:11.792Z,99.99
2017-10-02T12:19:11.772Z,99.99
2017-10-02T12:20:11.723Z,99.99
2017-10-02T12:21:11.691Z,99.99
2017-10-02T12:22:11.659Z,99.99
2017-10-02T12:23:11.670Z,99.99
2017-10-02T12:24:11.620Z,99.99
2017-10-02T12:25:11.588Z,99.99
2017-10-02T12:26:11.522Z,99.99
2017-10-02T12:27:11.509Z,99.99
2017-10-02T12:28:11.457Z,99.99
2017-10-02T12:29:11.423Z,99.99
2017-10-02T12:30:11.382Z,99.99
2017-10-02T12:31:11.356Z,99.99
2017-10-02T12:32:11.320Z,99.99
2017-10-02T12:33:11.304Z,99.99
2017-10-02T12:34:11.272Z,99.99
2017-10-02T12:35:11.260Z,99.99
2017-10-02T12:36:11.493Z,99.99
2017-10-02T12:37:11.148Z,99.99
2017-10-02T12:38:11.112Z,99.99
2017-10-02T12:39:11.083Z,99.99
2017-10-02T12:40:11.045Z,99.99
2017-10-02T12:41:11.012Z,99.99
2017-10-02T12:44:42.506Z,99.99
2017-10-02T12:45:42.456Z,99.99
2017-10-02T12:47:35.292Z,99.99
2017-10-02T12:48:35.228Z,99.99
2017-10-02T12:50:28.077Z,99.99
2017-10-02T12:51:28.033Z,99.99
2017-10-02T12:53:20.865Z,99.99
2017-10-02T12:54:20.821Z,99.99
2017-10-02T12:56:13.663Z,99.99
2017-10-02T12:57:13.610Z,99.99
2017-10-02T12:59:06.446Z,99.99